Time;durP1;ratioP1;P1;durP2;ratioP2;P2;SDS_P1;SDS_P2;PMS_P1;PMS_P2;Temp;Humidity;BMP_temperature;BMP_pressure;BME280_temperature;BME280_humidity;BME280_pressure;Samples;Min_cycle;Max_cycle;Signal;HPM_P1;HPM_P2
2022/06/17 00:02:17;;;;;;;14.80;5.03;;;;;;;14.79;58.68;99645.69;5015353;28;20061;-80
2022/06/17 00:04:47;;;;;;;13.10;5.50;;;;;;;14.73;58.83;99642.28;5015335;28;20057;-78
2022/06/17 00:07:15;;;;;;;12.32;5.10;;;;;;;14.74;58.89;99654.53;5014094;28;20081;-78
2022/06/17 00:09:43;;;;;;;15.48;5.30;;;;;;;14.73;58.82;99658.06;5015095;28;20062;-78
2022/06/17 00:12:14;;;;;;;10.90;5.03;;;;;;;14.70;59.09;99662.50;5015172;28;20058;-78
2022/06/17 00:15:16;;;;;;;12.40;5.18;;;;;;;14.70;59.31;99657.25;5014668;28;20519;-78
2022/06/17 00:17:42;;;;;;;13.27;5.47;;;;;;;14.68;59.64;99653.78;5015531;28;20457;-79
2022/06/17 00:20:14;;;;;;;10.40;5.63;;;;;;;14.69;59.24;99658.13;5013630;28;20482;-79
2022/06/17 00:22:45;;;;;;;16.40;5.80;;;;;;;14.71;59.34;99657.22;5030005;28;20498;-79
2022/06/17 00:25:30;;;;;;;10.98;5.78;;;;;;;14.69;59.33;99651.13;5013765;28;20061;-78
2022/06/17 00:28:00;;;;;;;9.98;5.40;;;;;;;14.67;59.54;99657.28;5015898;28;20050;-78
2022/06/17 00:30:32;;;;;;;10.15;5.35;;;;;;;14.71;59.38;99661.59;5014880;28;20395;-78
2022/06/17 00:33:03;;;;;;;12.88;5.63;;;;;;;14.68;59.42;99659.03;5014802;28;20148;-78
2022/06/17 00:35:44;;;;;;;12.80;5.20;;;;;;;14.64;59.74;99662.59;5014811;28;20533;-79
2022/06/17 00:38:17;;;;;;;13.90;5.40;;;;;;;14.66;59.10;99660.81;5013421;28;20058;-80
2022/06/17 00:40:45;;;;;;;11.75;4.55;;;;;;;14.63;58.88;99655.63;5014649;28;20141;-80
2022/06/17 00:43:24;;;;;;;13.57;4.95;;;;;;;14.68;58.95;99659.88;5014637;28;20062;-79
2022/06/17 00:46:09;;;;;;;13.68;5.40;;;;;;;14.72;58.98;99661.56;5013511;28;20054;-79
2022/06/17 00:48:52;;;;;;;15.07;5.15;;;;;;;14.74;59.00;99657.16;5014546;28;20050;-79
2022/06/17 00:51:25;;;;;;;15.73;5.50;;;;;;;14.74;59.13;99659.78;5030026;28;20110;-79
2022/06/17 00:54:18;;;;;;;14.93;5.30;;;;;;;14.79;59.35;99657.06;5014523;28;20493;-79
2022/06/17 00:56:47;;;;;;;14.38;4.78;;;;;;;14.81;59.03;99664.94;5014236;28;20078;-79
2022/06/17 00:59:15;;;;;;;16.23;4.60;;;;;;;14.80;59.22;99660.56;5014417;28;20042;-78
2022/06/17 01:01:59;;;;;;;12.00;5.35;;;;;;;14.81;59.15;99665.81;5013012;28;20054;-79
2022/06/17 01:04:43;;;;;;;12.32;5.35;;;;;;;14.84;58.95;99654.38;5013051;28;20100;-79
2022/06/17 01:07:20;;;;;;;14.25;5.07;;;;;;;14.91;59.18;99664.75;5013571;28;20065;-79
2022/06/17 01:09:57;;;;;;;18.23;5.63;;;;;;;14.94;59.03;99666.47;5013206;28;20053;-80
2022/06/17 01:12:29;;;;;;;14.55;5.57;;;;;;;15.00;59.10;99658.47;5029262;28;20498;-79
2022/06/17 01:15:00;;;;;;;11.80;5.40;;;;;;;14.98;58.80;99652.38;5012496;28;20506;-79
2022/06/17 01:17:38;;;;;;;17.05;6.18;;;;;;;15.01;58.69;99641.78;4997512;28;20054;-80
2022/06/17 01:20:11;;;;;;;12.05;5.03;;;;;;;15.08;58.72;99664.47;5012916;28;20061;-80
2022/06/17 01:22:44;;;;;;;18.45;5.50;;;;;;;15.01;58.39;99639.16;5029357;28;20498;-80
2022/06/17 01:25:24;;;;;;;10.00;5.22;;;;;;;15.17;57.79;99662.56;4996635;28;20061;-79
2022/06/17 01:28:02;;;;;;;15.30;4.90;;;;;;;15.29;57.29;99659.69;5029192;28;20473;-80
2022/06/17 01:30:36;;;;;;;16.70;5.72;;;;;;;15.31;57.16;99650.84;5029073;28;20096;-80
2022/06/17 01:33:10;;;;;;;11.65;5.35;;;;;;;15.35;57.14;99638.53;5014167;28;20058;-79
2022/06/17 01:36:03;;;;;;;14.35;4.97;;;;;;;15.48;57.15;99668.09;5013700;28;20054;-79
2022/06/17 01:38:34;;;;;;;17.08;5.22;;;;;;;15.56;57.38;99663.56;5014483;28;20062;-80
2022/06/17 01:41:04;;;;;;;14.15;5.40;;;;;;;15.62;56.79;99667.84;5012378;28;20497;-81
2022/06/17 01:43:43;;;;;;;15.25;5.28;;;;;;;15.66;56.49;99670.38;5012387;28;20054;-79
2022/06/17 01:46:25;;;;;;;15.13;5.10;;;;;;;15.71;55.86;99660.63;5013360;28;20060;-79
2022/06/17 01:49:04;;;;;;;14.43;4.57;;;;;;;15.83;55.88;99658.63;5012580;28;20505;-79
2022/06/17 01:51:37;;;;;;;13.35;4.75;;;;;;;15.99;55.24;99665.31;5013485;28;20096;-79
2022/06/17 01:54:11;;;;;;;13.07;4.57;;;;;;;16.24;54.75;99676.19;5013613;28;20069;-78
2022/06/17 01:56:43;;;;;;;10.02;4.70;;;;;;;16.66;53.42;99654.97;5028630;28;20528;-79
2022/06/17 01:59:16;;;;;;;7.30;4.22;;;;;;;18.89;48.39;99659.09;5012266;28;20108;-79
2022/06/17 02:01:52;;;;;;;9.98;4.55;;;;;;;21.81;41.52;99662.56;5028595;28;20050;-79
2022/06/17 02:04:27;;;;;;;9.27;4.18;;;;;;;23.63;37.74;99647.34;5028825;28;20462;-79
2022/06/17 02:07:17;;;;;;;11.82;4.53;;;;;;;25.46;34.89;99654.72;5029070;28;20061;-78
2022/06/17 02:09:46;;;;;;;9.13;3.88;;;;;;;26.90;31.63;99644.59;5012116;28;20144;-79
2022/06/17 02:12:19;;;;;;;9.60;4.00;;;;;;;27.91;30.08;99659.03;5012101;28;20109;-79
2022/06/17 02:14:55;;;;;;;6.40;3.97;;;;;;;28.83;28.24;99654.13;5011729;28;20144;-80
2022/06/17 02:17:45;;;;;;;11.10;4.03;;;;;;;30.02;26.42;99654.69;5028449;28;20065;-80
2022/06/17 02:20:23;;;;;;;;;;;;;;;31.15;28.72;99648.13;5012541;28;20462;-79
2022/06/17 02:22:55;;;;;;;9.85;3.95;;;;;;;31.89;24.31;99639.84;5013201;28;19929;-79
2022/06/17 02:25:30;;;;;;;8.73;3.88;;;;;;;32.69;23.05;99640.72;5013195;28;20510;-79
2022/06/17 02:28:01;;;;;;;7.65;3.75;;;;;;;33.35;22.05;99637.28;5012716;28;20092;-80
2022/06/17 02:30:29;;;;;;;5.45;3.38;;;;;;;34.24;20.76;99646.75;5028922;28;20054;-79
2022/06/17 02:33:01;;;;;;;6.72;3.90;;;;;;;34.92;19.99;99653.56;5017222;28;20505;-79
2022/06/17 02:35:34;;;;;;;6.22;3.53;;;;;;;35.53;19.14;99638.22;5017248;28;20153;-80
2022/06/17 02:38:05;;;;;;;11.50;4.15;;;;;;;36.16;18.50;99648.75;5032378;28;20054;-79
2022/06/17 02:40:37;;;;;;;10.82;3.70;;;;;;;36.74;17.70;99647.03;5017066;28;20062;-79
2022/06/17 02:43:12;;;;;;;7.72;3.55;;;;;;;37.23;17.49;99647.00;5016110;28;20136;-79
2022/06/17 02:45:52;;;;;;;6.40;3.33;;;;;;;36.87;18.22;99643.78;5017095;28;20049;-79
2022/06/17 02:48:25;;;;;;;;;;;;;;;37.35;19.64;99639.34;5017993;28;20462;-79
2022/06/17 02:50:57;;;;;;;8.40;3.40;;;;;;;38.15;16.97;99634.84;5016255;28;19972;-79
2022/06/17 02:53:33;;;;;;;7.05;3.78;;;;;;;38.45;16.21;99631.25;5016107;28;20053;-79
2022/06/17 02:56:07;;;;;;;6.78;3.95;;;;;;;38.92;15.96;99652.06;5016050;28;20389;-79
2022/06/17 02:59:09;;;;;;;7.88;3.60;;;;;;;39.87;15.62;99647.06;5016440;28;20128;-79
2022/06/17 03:01:44;;;;;;;5.85;3.70;;;;;;;41.12;13.97;99652.22;5032890;28;20092;-79
2022/06/17 03:04:33;;;;;;;7.68;4.10;;;;;;;41.81;13.39;99655.25;5035601;28;20100;-79
2022/06/17 03:07:17;;;;;;;4.97;3.60;;;;;;;41.55;14.02;99651.28;5040894;28;20038;-79
2022/06/17 03:09:49;;;;;;;9.68;3.97;;;;;;;41.21;14.03;99633.78;5039457;28;20030;-79
2022/06/17 03:12:24;;;;;;;7.32;4.10;;;;;;;41.90;13.34;99645.81;5038920;28;20093;-79
2022/06/17 03:15:10;;;;;;;9.82;3.92;;;;;;;41.56;13.82;99642.00;5016938;28;20061;-79
2022/06/17 03:17:44;;;;;;;9.55;4.00;;;;;;;41.53;13.54;99647.91;5032864;28;20136;-79
2022/06/17 03:20:20;;;;;;;7.63;4.07;;;;;;;41.65;13.73;99640.84;5016034;28;20506;-79
2022/06/17 03:22:58;;;;;;;9.43;4.05;;;;;;;41.72;13.55;99635.41;5031709;28;20049;-79
2022/06/17 03:25:37;;;;;;;8.33;3.80;;;;;;;42.12;13.36;99657.53;5015124;28;20100;-81
2022/06/17 03:28:12;;;;;;;6.10;3.90;;;;;;;42.57;12.97;99662.53;5015914;28;20112;-78
2022/06/17 03:30:58;;;;;;;5.78;4.75;;;;;;;43.23;12.46;99657.09;5015873;28;20388;-78
2022/06/17 03:33:34;;;;;;;11.70;4.22;;;;;;;43.57;12.10;99660.69;5016018;28;20053;-79
2022/06/17 03:36:16;;;;;;;5.63;3.90;;;;;;;44.19;11.56;99658.41;5014727;28;20072;-79
2022/06/17 03:39:00;;;;;;;6.82;4.30;;;;;;;44.72;11.52;99647.09;5030945;28;20057;-80
2022/06/17 03:41:37;;;;;;;9.25;4.13;;;;;;;44.62;11.68;99643.16;5015627;28;20057;-78
2022/06/17 03:44:13;;;;;;;;;;;;;;;45.18;12.70;99645.03;5031502;28;20058;-79
2022/06/17 03:47:12;;;;;;;8.52;4.20;;;;;;;46.09;11.04;99642.59;5030997;28;20023;-79
2022/06/17 03:49:47;;;;;;;8.20;4.20;;;;;;;46.09;10.28;99640.69;4998565;28;20124;-79
2022/06/17 03:52:42;;;;;;;7.32;4.10;;;;;;;45.28;11.49;99641.78;5031204;28;20412;-80
2022/06/17 03:55:19;;;;;;;8.48;4.53;;;;;;;45.59;10.98;99635.31;5012500;28;20115;-78
2022/06/17 03:57:54;;;;;;;6.68;4.13;;;;;;;46.25;10.27;99641.97;5014127;28;20153;-82
2022/06/17 04:00:50;;;;;;;10.45;3.92;;;;;;;46.14;10.32;99646.34;5014018;28;20132;-82
2022/06/17 04:03:27;;;;;;;7.88;4.25;;;;;;;45.95;10.68;99645.50;5030624;28;20073;-82
2022/06/17 04:06:08;;;;;;;9.68;4.22;;;;;;;45.89;10.28;99629.03;5030303;28;20107;-81
2022/06/17 04:09:06;;;;;;;6.65;3.70;;;;;;;46.15;10.57;99623.19;5015993;28;20145;-83
2022/06/17 04:11:39;;;;;;;8.32;3.67;;;;;;;46.84;9.99;99644.94;5031039;28;20410;-84
2022/06/17 04:14:22;;;;;;;8.88;3.85;;;;;;;45.86;10.87;99632.25;5013970;28;20144;-83
2022/06/17 04:16:54;;;;;;;5.25;3.67;;;;;;;45.50;10.49;99632.00;5014055;28;20050;-87
2022/06/17 04:19:26;;;;;;;4.15;3.30;;;;;;;44.00;11.40;99621.63;5030588;28;20099;-87
2022/06/17 04:22:05;;;;;;;9.45;3.33;;;;;;;41.09;13.76;99611.56;5015315;28;20120;-83
2022/06/17 04:24:58;;;;;;;4.78;2.78;;;;;;;37.67;16.38;99626.72;5030242;28;20050;-82
2022/06/17 04:30:25;;;;;;;4.78;2.92;;;;;;;33.02;21.33;99615.09;4997108;28;20433;-84
2022/06/17 04:33:11;;;;;;;4.93;2.80;;;;;;;32.47;22.00;99619.38;5030724;28;20058;-84
2022/06/17 04:35:41;;;;;;;6.03;2.88;;;;;;;31.52;23.05;99609.84;5013596;28;20490;-84
2022/06/17 04:38:10;;;;;;;8.65;2.60;;;;;;;31.14;23.72;99619.41;4997402;28;20498;-82
2022/06/17 04:41:01;;;;;;;9.98;2.70;;;;;;;30.53;24.54;99630.84;5014994;28;20596;-85
2022/06/17 04:43:47;;;;;;;5.97;2.88;;;;;;;29.59;25.90;99631.19;5015451;28;20054;-88
2022/06/17 04:46:44;;;;;;;7.60;2.97;;;;;;;28.85;26.71;99627.13;4997053;28;20096;-85
2022/06/17 04:49:25;;;;;;;5.68;3.15;;;;;;;28.74;27.41;99622.56;5013581;28;20149;-87
2022/06/17 04:52:06;;;;;;;6.45;2.90;;;;;;;28.12;28.23;99610.16;5013832;28;20136;-85
2022/06/17 04:54:39;;;;;;;5.72;3.08;;;;;;;27.93;29.22;99634.78;5029495;28;20100;-85
2022/06/17 04:57:28;;;;;;;4.47;2.70;;;;;;;27.43;29.42;99612.41;5014465;28;20077;-87
2022/06/17 05:00:20;;;;;;;7.22;1.98;;;;;;;27.27;29.09;99636.75;5030267;28;20088;-86
2022/06/17 05:02:52;;;;;;;6.90;2.50;;;;;;;27.11;29.62;99620.84;5013344;28;20576;-88
2022/06/17 05:05:56;;;;;;;5.03;2.47;;;;;;;26.75;29.56;99599.13;5022825;28;20417;-86
2022/06/17 05:08:24;;;;;;;6.53;2.60;;;;;;;26.39;30.68;99644.41;5016548;28;20053;-85
2022/06/17 05:11:07;;;;;;;10.05;3.17;;;;;;;26.04;31.06;99616.31;5033900;28;20144;-85
2022/06/17 05:13:56;;;;;;;5.00;2.22;;;;;;;25.94;31.19;99616.06;5032654;28;20432;-84
2022/06/17 05:16:26;;;;;;;6.90;2.20;;;;;;;25.87;31.24;99640.56;5034077;28;20049;-84
2022/06/17 05:18:54;;;;;;;7.90;2.50;;;;;;;25.90;31.39;99637.75;5033307;28;20049;-83
2022/06/17 05:21:24;;;;;;;6.03;2.47;;;;;;;25.93;31.88;99640.22;5033149;28;20049;-85
2022/06/17 05:24:17;;;;;;;5.32;2.88;;;;;;;25.84;32.05;99624.72;5033795;28;20045;-84
2022/06/17 05:26:46;;;;;;;5.00;2.50;;;;;;;25.79;32.59;99632.16;5033415;28;20060;-85
2022/06/17 05:29:14;;;;;;;8.32;2.40;;;;;;;25.54;32.18;99613.19;5033379;28;20053;-85
2022/06/17 05:31:53;;;;;;;3.97;2.20;;;;;;;25.33;32.94;99633.22;5020048;28;20049;-88
2022/06/17 05:34:27;;;;;;;7.47;2.60;;;;;;;25.38;33.28;99628.44;5034887;28;20061;-84
2022/06/17 05:36:57;;;;;;;;;;;;;;;25.18;32.61;99637.66;5036093;28;20056;-86
2022/06/17 05:39:33;;;;;;;6.32;2.22;;;;;;;25.23;33.03;99603.56;5006465;28;19924;-86
2022/06/17 05:42:01;;;;;;;5.53;2.05;;;;;;;25.52;32.69;99628.47;5040035;28;20061;-87
2022/06/17 05:44:29;;;;;;;3.63;2.08;;;;;;;25.59;32.68;99628.94;5035961;28;20077;-87
2022/06/17 05:47:09;;;;;;;5.50;2.25;;;;;;;25.39;33.18;99630.19;5025524;28;20049;-85
2022/06/17 05:49:55;;;;;;;5.93;2.28;;;;;;;25.50;33.00;99619.69;5024324;28;20058;-82
2022/06/17 05:52:56;;;;;;;6.07;2.35;;;;;;;25.59;32.35;99617.38;5037453;28;20053;-85
2022/06/17 05:55:40;;;;;;;6.10;2.00;;;;;;;25.51;31.85;99628.56;5033245;28;20049;-88
2022/06/17 05:58:10;;;;;;;3.15;1.63;;;;;;;25.32;32.08;99607.47;5033058;28;20053;-85
2022/06/17 06:00:38;;;;;;;5.38;1.75;;;;;;;25.33;31.96;99615.38;5033040;28;20081;-87
2022/06/17 06:03:08;;;;;;;4.53;1.83;;;;;;;25.29;31.97;99610.31;5035515;28;20064;-84
2022/06/17 06:05:38;;;;;;;5.57;2.30;;;;;;;25.34;32.17;99608.25;5042165;28;20084;-86
2022/06/17 06:08:10;;;;;;;4.80;1.75;;;;;;;25.38;31.72;99604.38;5027388;28;20055;-87
2022/06/17 06:10:40;;;;;;;6.97;2.53;;;;;;;24.94;32.22;99586.56;5035133;28;20045;-88
2022/06/17 06:13:15;;;;;;;4.68;2.15;;;;;;;25.03;32.95;99617.22;5019047;28;20067;-86
2022/06/17 06:15:47;;;;;;;2.97;1.75;;;;;;;24.95;32.50;99574.91;5034795;28;20505;-85
2022/06/17 06:18:28;;;;;;;4.85;1.73;;;;;;;24.76;32.36;99574.31;5033684;28;20055;-83
2022/06/17 06:21:04;;;;;;;3.03;1.70;;;;;;;24.96;32.31;99598.03;5016244;28;20414;-86
2022/06/17 06:23:38;;;;;;;6.40;2.00;;;;;;;25.04;32.74;99611.78;5031647;28;20596;-85
2022/06/17 06:26:16;;;;;;;4.60;1.92;;;;;;;25.09;32.45;99604.34;5032617;28;20462;-87
2022/06/17 06:28:51;;;;;;;3.25;1.85;;;;;;;25.14;32.02;99610.28;5015782;28;20053;-87
2022/06/17 06:31:36;;;;;;;2.55;1.70;;;;;;;25.44;32.01;99616.53;5018532;28;20049;-93
2022/06/17 06:34:13;;;;;;;4.75;1.75;;;;;;;25.43;31.63;99594.28;5034222;28;20057;-85
2022/06/17 06:36:45;;;;;;;1.65;1.55;;;;;;;25.21;30.52;99577.84;5032427;28;20072;-89
2022/06/17 06:39:16;;;;;;;2.70;1.50;;;;;;;25.23;30.29;99616.03;5032352;28;20108;-89
2022/06/17 06:41:43;;;;;;;7.60;1.75;;;;;;;24.93;30.61;99580.38;5032703;28;20063;-87
2022/06/17 06:44:13;;;;;;;3.00;1.83;;;;;;;25.28;31.15;99596.09;5032282;28;20060;-85
2022/06/17 06:47:05;;;;;;;4.45;1.95;;;;;;;25.46;31.08;99594.09;5014937;28;20057;-83
2022/06/17 06:50:10;;;;;;;4.55;1.60;;;;;;;25.15;31.03;99547.00;5032294;28;20513;-82
2022/06/17 06:52:38;;;;;;;6.70;1.65;;;;;;;25.45;30.51;99596.88;5034177;28;20049;-82
2022/06/17 06:55:13;;;;;;;3.15;2.30;;;;;;;25.65;30.44;99590.25;5041399;28;20049;-83
2022/06/17 06:57:56;;;;;;;4.35;2.30;;;;;;;25.41;31.01;99590.00;5056599;28;20037;-86
2022/06/17 07:00:29;;;;;;;5.60;2.58;;;;;;;25.32;31.21;99575.38;5056041;28;20041;-85
2022/06/17 07:02:58;;;;;;;4.15;2.38;;;;;;;25.34;31.13;99563.66;5052797;28;20049;-84
2022/06/17 07:05:27;;;;;;;4.53;2.22;;;;;;;25.52;31.47;99568.78;5038645;28;20053;-83
2022/06/17 07:07:56;;;;;;;3.55;1.95;;;;;;;25.38;31.64;99550.91;5037023;28;20080;-83
2022/06/17 07:10:30;;;;;;;7.18;2.28;;;;;;;25.41;31.92;99588.19;5015780;28;20060;-85
2022/06/17 07:13:03;;;;;;;4.00;2.17;;;;;;;25.21;32.39;99573.38;5030426;28;20054;-86
2022/06/17 07:15:32;;;;;;;5.05;2.30;;;;;;;24.71;32.53;99530.03;5032654;28;20524;-84
2022/06/17 07:18:07;;;;;;;5.85;2.38;;;;;;;24.93;32.22;99559.00;5035806;28;20050;-85
2022/06/17 07:20:42;;;;;;;3.13;1.67;;;;;;;25.15;31.80;99555.03;5034968;28;20045;-85
2022/06/17 07:23:34;;;;;;;4.22;1.60;;;;;;;25.41;31.72;99580.16;5034631;28;20057;-83
2022/06/17 07:26:07;;;;;;;3.90;2.00;;;;;;;25.26;31.59;99570.44;5035593;28;20057;-82
2022/06/17 07:28:35;;;;;;;3.40;2.00;;;;;;;25.12;32.08;99572.09;5034011;28;20049;-83
2022/06/17 07:31:03;;;;;;;5.53;2.42;;;;;;;25.37;32.44;99580.44;5035641;28;20049;-84
2022/06/17 07:33:34;;;;;;;9.68;6.45;;;;;;;25.28;31.99;99579.22;5035530;28;20486;-84
2022/06/17 07:36:05;;;;;;;9.07;3.58;;;;;;;25.00;32.47;99578.19;5034328;28;20616;-84
2022/06/17 07:41:26;;;;;;;9.07;4.68;;;;;;;25.14;31.75;99585.34;5035109;28;20456;-84
2022/06/17 07:43:57;;;;;;;6.90;2.65;;;;;;;25.37;31.29;99578.63;5034548;28;20057;-85
2022/06/17 07:46:25;;;;;;;2.22;2.05;;;;;;;25.41;30.90;99590.00;5032479;28;20473;-84
2022/06/17 07:48:52;;;;;;;4.82;2.05;;;;;;;25.03;31.75;99575.31;5033595;28;20061;-85
2022/06/17 07:51:20;;;;;;;3.10;1.55;;;;;;;25.30;31.50;99586.16;5037115;28;20053;-85
2022/06/17 07:53:48;;;;;;;5.55;1.70;;;;;;;25.30;31.16;99562.13;5001745;28;20064;-83
2022/06/17 07:56:16;;;;;;;4.50;1.80;;;;;;;25.80;31.00;99580.41;5021149;28;20053;-84
2022/06/17 07:58:44;;;;;;;8.25;2.03;;;;;;;25.78;30.78;99575.16;5035680;28;20566;-85
2022/06/17 08:01:17;;;;;;;2.95;1.80;;;;;;;25.70;30.34;99556.03;5019499;28;20065;-85
2022/06/17 08:03:46;;;;;;;2.25;1.35;;;;;;;25.99;30.68;99596.16;5035193;28;20148;-85
2022/06/17 08:06:16;;;;;;;3.10;1.80;;;;;;;26.27;30.21;99593.41;5000809;28;20080;-86
2022/06/17 08:08:48;;;;;;;3.83;1.92;;;;;;;26.39;30.49;99580.16;5019145;28;20075;-85
2022/06/17 08:11:15;;;;;;;5.07;1.87;;;;;;;26.65;30.09;99579.31;5033752;28;20104;-87
2022/06/17 08:13:43;;;;;;;4.50;1.67;;;;;;;26.76;29.42;99568.72;5016180;28;20057;-88
2022/06/17 08:16:13;;;;;;;4.30;2.03;;;;;;;26.93;29.29;99586.31;5016809;28;20456;-85
2022/06/17 08:18:42;;;;;;;2.78;1.75;;;;;;;27.06;28.91;99562.19;5033446;28;20125;-84
2022/06/17 08:21:11;;;;;;;3.90;1.60;;;;;;;27.05;28.71;99581.91;5034367;28;20144;-81
2022/06/17 08:23:40;;;;;;;1.45;1.35;;;;;;;27.07;28.48;99582.66;5034607;28;20057;-83
2022/06/17 08:26:07;;;;;;;3.80;1.83;;;;;;;27.04;28.42;99569.47;5034925;28;20045;-89
2022/06/17 08:28:34;;;;;;;4.47;1.60;;;;;;;27.05;28.13;99556.94;5033357;28;20432;-86
2022/06/17 08:31:03;;;;;;;8.85;2.10;;;;;;;27.16;28.58;99578.47;5035485;28;20072;-86
2022/06/17 08:33:31;;;;;;;2.00;1.67;;;;;;;27.22;27.79;99563.84;5033569;28;20053;-86
2022/06/17 08:36:21;;;;;;;6.57;1.70;;;;;;;27.02;27.32;99531.22;5033755;28;20062;-85
2022/06/17 08:38:53;;;;;;;2.17;1.63;;;;;;;27.33;27.19;99553.19;5033424;28;20077;-86
2022/06/17 08:41:35;;;;;;;2.70;1.65;;;;;;;27.67;26.89;99564.19;5034536;28;20468;-86
2022/06/17 08:44:23;;;;;;;2.33;2.13;;;;;;;27.81;27.00;99563.19;5018009;28;20057;-85
2022/06/17 08:46:53;;;;;;;2.45;2.00;;;;;;;27.53;26.84;99562.50;5032878;28;20103;-86
2022/06/17 08:49:54;;;;;;;2.90;2.15;;;;;;;27.06;27.81;99545.22;5035283;28;20452;-85
2022/06/17 08:52:32;;;;;;;6.70;2.00;;;;;;;27.15;27.90;99553.50;5017748;28;20067;-85
2022/06/17 08:55:12;;;;;;;3.22;1.80;;;;;;;27.34;27.34;99560.25;5034250;28;20054;-86
2022/06/17 08:57:51;;;;;;;3.27;1.50;;;;;;;27.55;27.20;99553.38;5032866;28;20156;-87
2022/06/17 09:00:30;;;;;;;7.20;3.10;;;;;;;27.69;27.36;99549.69;5034742;28;20049;-85
2022/06/17 09:03:02;;;;;;;8.40;2.03;;;;;;;27.91;27.20;99557.06;5032801;28;20057;-85
2022/06/17 09:05:46;;;;;;;3.42;1.92;;;;;;;27.97;27.39;99551.25;5032742;28;20056;-85
2022/06/17 09:08:47;;;;;;;3.95;1.45;;;;;;;28.19;27.16;99547.81;5033211;28;20145;-86
2022/06/17 09:11:24;;;;;;;4.75;1.75;;;;;;;28.11;26.75;99550.19;5033078;28;20140;-90
2022/06/17 09:14:55;;;;;;;4.22;2.00;;;;;;;28.06;27.22;99551.53;5034535;28;20057;-87
2022/06/17 09:18:03;;;;;;;3.63;1.70;;;;;;;27.62;27.09;99542.19;5035006;28;20059;-86
2022/06/17 09:20:39;;;;;;;4.63;2.35;;;;;;;27.20;27.84;99550.50;5032933;28;20053;-88
2022/06/17 09:23:18;;;;;;;5.53;2.05;;;;;;;26.86;28.23;99528.72;5018756;28;20053;-87
2022/06/17 09:25:49;;;;;;;3.03;1.30;;;;;;;26.12;29.31;99520.31;5036905;28;20159;-87
2022/06/17 09:28:20;;;;;;;;;;;;;;;25.60;29.95;99550.44;5033901;28;20046;-88
2022/06/17 09:30:56;;;;;;;4.20;1.70;;;;;;;25.53;30.39;99533.06;5034062;28;19952;-88
2022/06/17 09:33:36;;;;;;;3.45;2.20;;;;;;;25.51;30.49;99543.88;5034323;28;20140;-87
2022/06/17 09:36:14;;;;;;;4.75;2.80;;;;;;;25.31;30.96;99525.53;5017290;28;20061;-86
2022/06/17 09:39:00;;;;;;;2.50;1.98;;;;;;;25.27;32.70;99553.41;5033194;28;20557;-87
2022/06/17 09:41:38;;;;;;;5.07;4.55;;;;;;;25.13;33.69;99572.97;5018386;28;20041;-86
2022/06/17 09:44:31;;;;;;;6.82;2.90;;;;;;;24.86;33.56;99588.84;5015996;28;20061;-87
2022/06/17 09:47:31;;;;;;;5.70;3.40;;;;;;;24.29;34.90;99552.13;5033732;28;20053;-87
2022/06/17 09:50:16;;;;;;;6.00;3.20;;;;;;;24.12;36.89;99609.13;5033113;28;20065;-87
2022/06/17 09:53:04;;;;;;;7.32;2.60;;;;;;;23.54;39.42;99609.66;5016058;28;20059;-87
2022/06/17 09:56:05;;;;;;;6.43;2.70;;;;;;;23.13;41.27;99626.06;5033537;28;20107;-86
2022/06/17 09:58:43;;;;;;;3.70;2.67;;;;;;;22.76;43.58;99619.91;5032793;28;20049;-86
2022/06/17 10:01:12;;;;;;;5.15;2.53;;;;;;;22.12;45.82;99605.31;5032053;28;20045;-84
2022/06/17 10:03:41;;;;;;;7.35;2.47;;;;;;;21.88;46.00;99640.13;5032356;28;20049;-86
2022/06/17 10:06:50;;;;;;;4.47;2.45;;;;;;;21.57;45.79;99643.31;5032338;28;20502;-84
2022/06/17 10:09:39;;;;;;;5.40;2.38;;;;;;;21.02;47.14;99635.97;5031612;28;20588;-87
2022/06/17 10:12:47;;;;;;;3.90;2.40;;;;;;;20.84;48.45;99649.09;5033173;28;20506;-86
2022/06/17 10:15:24;;;;;;;4.63;2.92;;;;;;;20.50;49.84;99591.25;5032082;28;20417;-87
2022/06/17 10:20:57;;;;;;;3.90;1.85;;;;;;;20.62;50.72;99651.78;5015135;28;20049;-86
2022/06/17 10:23:35;;;;;;;7.20;2.58;;;;;;;20.57;50.30;99623.69;5033011;28;20136;-87
2022/06/17 10:26:28;;;;;;;3.95;2.00;;;;;;;20.73;49.61;99635.41;5031825;28;20161;-87
2022/06/17 10:28:57;;;;;;;5.15;2.00;;;;;;;20.86;49.59;99627.78;5032332;28;20048;-86
2022/06/17 10:31:38;;;;;;;6.03;3.03;;;;;;;20.94;49.09;99612.41;5033366;28;20049;-87
2022/06/17 10:34:27;;;;;;;3.70;2.13;;;;;;;21.15;49.22;99609.75;5033024;28;20437;-87
2022/06/17 10:37:00;;;;;;;3.75;1.80;;;;;;;21.43;47.95;99618.22;5033125;28;20045;-86
2022/06/17 10:39:34;;;;;;;3.83;1.90;;;;;;;21.26;49.26;99618.09;5033346;28;20061;-86
2022/06/17 10:42:05;;;;;;;2.67;1.80;;;;;;;21.06;48.22;99582.66;5015803;28;20064;-85
2022/06/17 10:44:34;;;;;;;3.28;1.70;;;;;;;21.57;47.15;99611.41;5034222;28;20076;-86
2022/06/17 10:47:27;;;;;;;2.95;1.55;;;;;;;22.29;45.76;99600.91;5048152;28;20026;-85
2022/06/17 10:50:24;;;;;;;2.90;1.67;;;;;;;23.14;44.39;99601.97;5056993;28;20033;-87
2022/06/17 10:53:00;;;;;;;3.85;1.90;;;;;;;23.84;43.33;99613.34;5060510;28;20065;-87
2022/06/17 10:55:48;;;;;;;3.53;1.60;;;;;;;24.14;42.70;99587.72;5056156;28;20053;-86
2022/06/17 10:58:29;;;;;;;1.40;1.30;;;;;;;24.29;41.84;99552.13;5050062;28;20046;-86
2022/06/17 11:01:15;;;;;;;1.50;1.27;;;;;;;24.63;40.46;99564.38;5036863;28;20532;-87
2022/06/17 11:03:48;;;;;;;1.50;1.25;;;;;;;24.71;39.12;99575.44;5021513;28;20045;-87
2022/06/17 11:06:20;;;;;;;1.33;1.25;;;;;;;24.62;38.28;99559.13;5038774;28;20060;-88
2022/06/17 11:08:49;;;;;;;1.20;1.10;;;;;;;24.79;39.62;99580.34;5035865;28;20049;-87
2022/06/17 11:14:27;;;;;;;1.90;1.30;;;;;;;25.05;39.49;99576.09;5034544;28;20072;-86
2022/06/17 11:16:57;;;;;;;2.28;1.00;;;;;;;25.17;37.50;99568.25;5036439;28;20107;-89
2022/06/17 11:19:26;;;;;;;1.40;1.30;;;;;;;25.38;38.28;99580.31;5034832;28;20058;-88
2022/06/17 11:22:03;;;;;;;1.60;1.45;;;;;;;25.19;37.86;99575.25;5036269;28;20136;-86
2022/06/17 11:24:38;;;;;;;1.33;1.20;;;;;;;24.51;38.07;99546.41;5036728;28;20050;-87
2022/06/17 11:27:22;;;;;;;1.77;1.27;;;;;;;24.42;39.28;99568.28;5018398;28;20080;-88
2022/06/17 11:30:11;;;;;;;3.13;1.40;;;;;;;24.14;40.25;99563.69;5037454;28;20058;-87
2022/06/17 11:32:45;;;;;;;2.20;1.20;;;;;;;23.94;41.30;99579.03;5021318;28;20057;-87
2022/06/17 11:35:20;;;;;;;1.75;1.20;;;;;;;24.14;41.65;99583.22;5001755;28;20045;-87
2022/06/17 11:37:51;;;;;;;2.75;1.42;;;;;;;24.18;40.56;99554.53;5034378;28;20084;-86
2022/06/17 11:40:24;;;;;;;1.73;1.63;;;;;;;24.27;40.42;99589.56;5037567;28;20501;-86
2022/06/17 11:42:59;;;;;;;1.95;1.70;;;;;;;23.79;40.63;99481.19;5020434;28;20049;-86
2022/06/17 11:45:37;;;;;;;3.08;1.75;;;;;;;24.53;41.11;99577.41;5036357;28;20056;-87
2022/06/17 11:48:19;;;;;;;2.35;2.03;;;;;;;24.55;41.01;99580.00;5035818;28;20052;-87
2022/06/17 11:51:27;;;;;;;4.88;2.25;;;;;;;24.65;41.18;99570.50;5034336;28;20052;-87
2022/06/17 11:53:59;;;;;;;4.18;2.60;;;;;;;24.96;40.96;99563.31;5034806;28;20103;-87
2022/06/17 11:56:41;;;;;;;3.38;2.20;;;;;;;25.17;39.94;99560.25;5032489;28;20099;-87
2022/06/17 11:59:21;;;;;;;2.50;2.28;;;;;;;25.00;40.10;99538.13;5035666;28;20053;-87
2022/06/17 12:01:53;;;;;;;3.75;2.10;;;;;;;25.14;39.23;99550.63;5019118;28;20489;-87
2022/06/17 12:04:48;;;;;;;2.35;1.73;;;;;;;25.05;38.98;99552.03;5038407;28;20049;-86
2022/06/17 12:07:31;;;;;;;1.95;1.75;;;;;;;25.11;39.15;99548.13;5044151;28;20166;-86
2022/06/17 12:10:04;;;;;;;2.28;1.67;;;;;;;25.21;38.20;99524.41;5042319;28;20045;-86
2022/06/17 12:12:34;;;;;;;3.50;2.25;;;;;;;25.37;38.10;99538.53;5023508;28;20081;-86
2022/06/17 12:15:22;;;;;;;4.13;1.77;;;;;;;25.31;38.86;99538.91;4984245;28;20115;-86
2022/06/17 12:17:57;;;;;;;1.98;1.67;;;;;;;24.98;39.05;99513.31;5037637;28;20111;-84
2022/06/17 12:20:34;;;;;;;3.33;1.75;;;;;;;24.88;39.52;99515.66;5021771;28;20053;-85
2022/06/17 12:23:52;;;;;;;1.73;1.60;;;;;;;24.85;39.38;99526.56;5032988;28;20049;-84
2022/06/17 12:26:49;;;;;;;3.97;1.70;;;;;;;24.37;39.90;99508.97;5030677;28;20093;-83
2022/06/17 12:29:44;;;;;;;2.13;1.85;;;;;;;24.11;40.73;99522.91;5052160;28;20092;-82
2022/06/17 12:32:20;;;;;;;3.08;1.90;;;;;;;24.04;41.03;99537.53;5033906;28;20151;-83
2022/06/17 12:34:52;;;;;;;4.57;2.25;;;;;;;23.94;42.40;99539.03;5034476;28;20071;-82
2022/06/17 12:37:38;;;;;;;6.38;2.10;;;;;;;23.91;42.87;99542.69;5034277;28;20045;-83